Time;durP1;ratioP1;P1;durP2;ratioP2;P2;SDS_P1;SDS_P2;PMS_P1;PMS_P2;Temp;Humidity;BMP_temperature;BMP_pressure;BME280_temperature;BME280_humidity;BME280_pressure;Samples;Min_cycle;Max_cycle;Signal;HPM_P1;HPM_P2
2024/01/26 00:01:18;;;;;;;24.48;15.75;;;;;;;;;;4923105;29;20032;-71
2024/01/26 00:03:44;;;;;;;33.55;19.17;;;;;;;;;;4921186;29;20051;-71
2024/01/26 00:06:11;;;;;;;18.08;14.60;;;;;;;;;;4919931;29;20033;-72
2024/01/26 00:08:37;;;;;;;19.85;11.73;;;;;;;;;;4926940;29;20036;-72
2024/01/26 00:11:03;;;;;;;13.30;8.93;;;;;;;;;;4904379;29;20028;-73
2024/01/26 00:13:29;;;;;;;37.28;18.83;;;;;;;;;;4928678;29;20119;-72
2024/01/26 00:15:55;;;;;;;11.82;8.68;;;;;;;;;;4907258;29;20054;-72
2024/01/26 00:18:21;;;;;;;21.17;12.80;;;;;;;;;;4926378;29;20529;-72
2024/01/26 00:20:47;;;;;;;29.45;16.35;;;;;;;;;;4902236;29;20143;-71
2024/01/26 00:23:13;;;;;;;36.47;21.13;;;;;;;;;;4923836;29;20133;-73
2024/01/26 00:25:39;;;;;;;30.90;17.38;;;;;;;;;;4926224;29;20088;-72
2024/01/26 00:28:06;;;;;;;27.95;16.20;;;;;;;;;;4906769;29;20577;-71
2024/01/26 00:30:32;;;;;;;25.13;14.60;;;;;;;;;;4922198;29;20181;-72
2024/01/26 00:32:59;;;;;;;21.50;12.25;;;;;;;;;;4914230;29;20067;-72
2024/01/26 00:35:26;;;;;;;27.42;15.73;;;;;;;;;;4927054;29;20031;-72
2024/01/26 00:37:52;;;;;;;26.65;14.55;;;;;;;;;;4919129;29;20087;-72
2024/01/26 00:40:18;;;;;;;22.58;12.90;;;;;;;;;;4924063;29;20039;-72
2024/01/26 00:42:44;;;;;;;21.90;14.50;;;;;;;;;;4927242;29;20139;-72
2024/01/26 00:45:10;;;;;;;28.63;16.40;;;;;;;;;;4930352;29;20178;-72
2024/01/26 00:47:36;;;;;;;41.47;14.35;;;;;;;;;;4925939;29;20420;-70
2024/01/26 00:50:02;;;;;;;17.73;12.55;;;;;;;;;;4908489;29;20503;-72
2024/01/26 00:52:29;;;;;;;17.95;12.65;;;;;;;;;;4928226;29;20403;-72
2024/01/26 00:54:56;;;;;;;28.90;16.55;;;;;;;;;;4930377;29;20035;-71
2024/01/26 00:57:23;;;;;;;17.17;10.20;;;;;;;;;;4900257;29;20047;-71
2024/01/26 00:59:49;;;;;;;22.95;12.32;;;;;;;;;;4932653;29;20154;-72
2024/01/26 01:02:15;;;;;;;21.70;14.35;;;;;;;;;;4902766;29;20566;-72
2024/01/26 01:04:40;;;;;;;31.05;15.93;;;;;;;;;;4935106;29;20046;-72
2024/01/26 01:07:06;;;;;;;22.90;14.23;;;;;;;;;;4925787;29;20043;-72
2024/01/26 01:09:33;;;;;;;17.38;10.15;;;;;;;;;;4928073;29;20032;-71
2024/01/26 01:11:59;;;;;;;27.52;15.40;;;;;;;;;;4929322;29;20042;-73
2024/01/26 01:14:25;;;;;;;40.17;18.45;;;;;;;;;;4925452;29;20031;-72
2024/01/26 01:16:51;;;;;;;31.65;18.45;;;;;;;;;;4928330;29;20063;-72
2024/01/26 01:19:17;;;;;;;23.92;15.65;;;;;;;;;;4926389;29;21761;-72
2024/01/26 01:21:43;;;;;;;27.27;16.75;;;;;;;;;;4927595;29;20590;-72
2024/01/26 01:24:09;;;;;;;14.52;11.25;;;;;;;;;;4928118;29;20067;-71
2024/01/26 01:26:35;;;;;;;30.60;15.90;;;;;;;;;;4919979;29;20066;-72
2024/01/26 01:29:03;;;;;;;27.60;16.70;;;;;;;;;;4932162;29;20063;-72
2024/01/26 01:31:29;;;;;;;24.25;13.60;;;;;;;;;;4932313;29;20126;-72
2024/01/26 01:33:55;;;;;;;30.52;17.20;;;;;;;;;;4932586;29;20128;-72
2024/01/26 01:36:21;;;;;;;33.38;18.10;;;;;;;;;;4928680;29;20099;-72
2024/01/26 01:38:46;;;;;;;13.50;10.65;;;;;;;;;;4927278;29;20052;-72
2024/01/26 01:41:12;;;;;;;25.38;15.75;;;;;;;;;;4929221;29;20039;-72
2024/01/26 01:43:38;;;;;;;32.42;17.88;;;;;;;;;;4926324;29;20091;-73
2024/01/26 01:46:04;;;;;;;14.45;10.93;;;;;;;;;;4924657;29;20111;-72
2024/01/26 01:48:30;;;;;;;28.08;15.45;;;;;;;;;;4928944;29;20043;-72
2024/01/26 01:50:55;;;;;;;24.80;13.73;;;;;;;;;;4925105;29;20032;-72
2024/01/26 01:53:21;;;;;;;18.30;12.93;;;;;;;;;;4926183;29;20048;-72
2024/01/26 01:55:47;;;;;;;19.17;11.32;;;;;;;;;;4924779;29;20390;-73
2024/01/26 01:58:22;;;;;;;21.63;13.00;;;;;;;;;;4920177;29;20071;-71
2024/01/26 02:00:48;;;;;;;15.07;10.73;;;;;;;;;;4922342;29;20028;-71
2024/01/26 02:03:14;;;;;;;31.90;16.13;;;;;;;;;;4924427;29;20625;-71
2024/01/26 02:05:40;;;;;;;26.80;13.10;;;;;;;;;;4923345;29;20035;-71
2024/01/26 02:08:06;;;;;;;8.63;7.80;;;;;;;;;;4926647;29;20051;-71
2024/01/26 02:10:32;;;;;;;29.52;15.65;;;;;;;;;;4923006;29;20038;-73
2024/01/26 02:12:58;;;;;;;29.65;15.93;;;;;;;;;;4932539;29;20070;-71
2024/01/26 02:15:24;;;;;;;23.17;14.32;;;;;;;;;;4925102;29;20036;-70
2024/01/26 02:18:09;;;;;;;16.70;10.27;;;;;;;;;;4918854;29;20055;-71
2024/01/26 02:20:36;;;;;;;23.00;13.43;;;;;;;;;;4929640;29;20060;-70
2024/01/26 02:23:02;;;;;;;21.92;13.23;;;;;;;;;;4909674;29;20040;-71
2024/01/26 02:25:28;;;;;;;23.10;13.32;;;;;;;;;;4933244;29;20040;-70
2024/01/26 02:27:53;;;;;;;24.05;14.73;;;;;;;;;;4926617;29;20036;-71
2024/01/26 02:30:19;;;;;;;33.63;20.02;;;;;;;;;;4926195;29;20039;-70
2024/01/26 02:32:45;;;;;;;19.52;13.73;;;;;;;;;;4923449;29;20044;-71
2024/01/26 02:35:11;;;;;;;18.50;11.73;;;;;;;;;;4922578;29;20569;-72
2024/01/26 02:37:37;;;;;;;28.38;17.10;;;;;;;;;;4925357;29;20048;-72
2024/01/26 02:40:03;;;;;;;26.15;16.38;;;;;;;;;;4907820;29;20039;-72
2024/01/26 02:42:29;;;;;;;24.08;13.77;;;;;;;;;;4925277;29;20039;-72
2024/01/26 02:44:55;;;;;;;29.75;16.42;;;;;;;;;;4922440;29;20039;-71
2024/01/26 02:47:21;;;;;;;28.90;16.38;;;;;;;;;;4925566;29;20036;-72
2024/01/26 02:49:47;;;;;;;8.93;8.07;;;;;;;;;;4923423;29;20031;-72
2024/01/26 02:52:12;;;;;;;20.48;14.15;;;;;;;;;;4920361;29;20092;-72
2024/01/26 02:54:38;;;;;;;29.35;16.90;;;;;;;;;;4923529;29;20536;-73
2024/01/26 02:57:04;;;;;;;27.13;16.05;;;;;;;;;;4920935;29;20044;-72
2024/01/26 02:59:30;;;;;;;24.65;13.88;;;;;;;;;;4923364;29;20084;-73
2024/01/26 03:01:56;;;;;;;5.93;5.43;;;;;;;;;;4924297;29;20032;-72
2024/01/26 03:04:22;;;;;;;30.17;16.23;;;;;;;;;;4920893;29;20410;-72
2024/01/26 03:06:49;;;;;;;11.18;9.02;;;;;;;;;;4923882;29;20043;-72
2024/01/26 03:09:15;;;;;;;32.33;18.88;;;;;;;;;;4906180;29;20037;-71
2024/01/26 03:11:41;;;;;;;41.08;22.77;;;;;;;;;;4923555;29;20055;-72
2024/01/26 03:14:07;;;;;;;40.10;18.65;;;;;;;;;;4923502;29;20071;-71
2024/01/26 03:16:39;;;;;;;29.63;18.02;;;;;;;;;;4920852;29;20039;-71
2024/01/26 03:19:05;;;;;;;28.30;17.42;;;;;;;;;;4920249;29;20054;-71
2024/01/26 03:21:31;;;;;;;48.50;25.13;;;;;;;;;;4923523;29;20056;-70
2024/01/26 03:23:57;;;;;;;36.72;17.67;;;;;;;;;;4921253;29;20112;-72
2024/01/26 03:26:23;;;;;;;33.33;18.40;;;;;;;;;;4920880;29;20482;-72
2024/01/26 03:28:49;;;;;;;16.05;11.18;;;;;;;;;;4927185;29;20486;-71
2024/01/26 03:31:15;;;;;;;30.92;17.13;;;;;;;;;;4920305;29;20063;-72
2024/01/26 03:33:42;;;;;;;24.48;13.55;;;;;;;;;;4922676;29;20422;-72
2024/01/26 03:36:08;;;;;;;34.17;19.08;;;;;;;;;;4921829;29;20091;-71
2024/01/26 03:38:34;;;;;;;23.85;13.93;;;;;;;;;;4923844;29;20048;-71
2024/01/26 03:41:00;;;;;;;25.52;13.80;;;;;;;;;;4924342;29;20036;-71
2024/01/26 03:43:26;;;;;;;27.83;14.75;;;;;;;;;;4918632;29;20456;-72
2024/01/26 03:45:52;;;;;;;24.00;15.07;;;;;;;;;;4924641;29;20038;-72
2024/01/26 03:48:17;;;;;;;15.90;10.13;;;;;;;;;;4924615;29;20679;-71
2024/01/26 03:50:43;;;;;;;26.80;15.23;;;;;;;;;;4921153;29;20032;-71
2024/01/26 03:53:09;;;;;;;20.13;11.07;;;;;;;;;;4924318;29;20044;-70
2024/01/26 03:55:36;;;;;;;25.20;14.43;;;;;;;;;;4919664;29;20038;-70
2024/01/26 03:58:01;;;;;;;28.77;16.27;;;;;;;;;;4920006;29;20134;-70
2024/01/26 04:00:27;;;;;;;46.38;24.73;;;;;;;;;;4923860;29;20107;-71
2024/01/26 04:02:53;;;;;;;43.83;24.45;;;;;;;;;;4920961;29;20047;-71
2024/01/26 04:05:19;;;;;;;33.35;16.80;;;;;;;;;;4920991;29;20177;-71
2024/01/26 04:07:45;;;;;;;40.97;21.38;;;;;;;;;;4922668;29;20554;-71
2024/01/26 04:10:10;;;;;;;36.58;18.13;;;;;;;;;;4925722;29;20095;-70
2024/01/26 04:12:36;;;;;;;36.65;22.00;;;;;;;;;;4923050;29;20122;-71
2024/01/26 04:15:02;;;;;;;42.80;21.60;;;;;;;;;;4920720;29;20071;-70
2024/01/26 04:17:30;;;;;;;36.65;21.27;;;;;;;;;;4929235;29;20044;-70
2024/01/26 04:19:56;;;;;;;34.00;18.92;;;;;;;;;;4926793;29;20046;-69
2024/01/26 04:22:22;;;;;;;27.67;15.15;;;;;;;;;;4919529;29;20907;-71
2024/01/26 04:24:48;;;;;;;28.23;14.68;;;;;;;;;;4921334;29;20035;-71
2024/01/26 04:27:13;;;;;;;32.40;16.38;;;;;;;;;;4920250;29;20024;-70
2024/01/26 04:29:39;;;;;;;30.60;16.08;;;;;;;;;;4922468;29;20558;-71
2024/01/26 04:32:05;;;;;;;35.38;17.60;;;;;;;;;;4923935;29;20031;-72
2024/01/26 04:34:31;;;;;;;25.45;17.20;;;;;;;;;;4919398;29;20047;-74
2024/01/26 04:36:57;;;;;;;33.03;17.08;;;;;;;;;;4919677;29;20095;-71
2024/01/26 04:39:22;;;;;;;38.88;21.27;;;;;;;;;;4922617;29;20044;-71
2024/01/26 04:41:48;;;;;;;31.35;17.25;;;;;;;;;;4920931;29;20043;-71
2024/01/26 04:44:14;;;;;;;40.70;20.73;;;;;;;;;;4921870;29;20601;-72
2024/01/26 04:46:40;;;;;;;27.15;15.27;;;;;;;;;;4920096;29;20040;-71
2024/01/26 04:49:06;;;;;;;40.35;22.42;;;;;;;;;;4919368;29;20058;-71
2024/01/26 04:51:32;;;;;;;29.77;17.33;;;;;;;;;;4923125;29;20486;-72
2024/01/26 04:53:57;;;;;;;23.67;13.90;;;;;;;;;;4919241;29;20036;-71
2024/01/26 04:56:23;;;;;;;31.13;16.55;;;;;;;;;;4924109;29;20133;-71
2024/01/26 04:58:49;;;;;;;37.95;19.67;;;;;;;;;;4922067;29;20052;-71
2024/01/26 05:01:15;;;;;;;22.55;14.35;;;;;;;;;;4918960;29;20126;-72
2024/01/26 05:03:41;;;;;;;30.80;16.13;;;;;;;;;;4923836;29;20031;-71
2024/01/26 05:06:07;;;;;;;31.50;19.05;;;;;;;;;;4919368;29;20050;-72
2024/01/26 05:08:32;;;;;;;34.15;15.48;;;;;;;;;;4922911;29;20451;-71
2024/01/26 05:10:59;;;;;;;34.47;16.85;;;;;;;;;;4921627;29;20039;-73
2024/01/26 05:13:25;;;;;;;35.55;16.77;;;;;;;;;;4918455;29;20043;-71
2024/01/26 05:15:51;;;;;;;17.33;12.18;;;;;;;;;;4918693;29;20115;-72
2024/01/26 05:18:16;;;;;;;41.53;21.13;;;;;;;;;;4921705;29;20094;-71
2024/01/26 05:20:42;;;;;;;35.42;18.92;;;;;;;;;;4924302;29;20051;-71
2024/01/26 05:23:08;;;;;;;38.80;18.20;;;;;;;;;;4906206;29;20043;-72
2024/01/26 05:25:34;;;;;;;36.15;17.55;;;;;;;;;;4922311;29;20031;-72
2024/01/26 05:27:59;;;;;;;24.15;13.23;;;;;;;;;;4920595;29;20098;-71
2024/01/26 05:30:26;;;;;;;29.40;15.18;;;;;;;;;;4926227;29;20106;-73
2024/01/26 05:32:52;;;;;;;12.77;7.53;;;;;;;;;;4923732;29;20192;-72
2024/01/26 05:35:19;;;;;;;38.25;21.33;;;;;;;;;;4926773;29;20406;-72
2024/01/26 05:37:45;;;;;;;40.20;19.40;;;;;;;;;;4924346;29;20051;-72
2024/01/26 05:40:11;;;;;;;33.40;17.27;;;;;;;;;;4912377;29;20438;-71
2024/01/26 05:42:37;;;;;;;32.38;17.13;;;;;;;;;;4932742;29;20447;-71
2024/01/26 05:45:03;;;;;;;55.42;28.30;;;;;;;;;;4925066;29;20031;-70
2024/01/26 05:47:32;;;;;;;31.90;17.60;;;;;;;;;;4931702;29;20068;-70
2024/01/26 05:49:58;;;;;;;53.08;25.40;;;;;;;;;;4931786;29;20099;-71
2024/01/26 05:52:24;;;;;;;42.20;20.23;;;;;;;;;;4932839;29;20526;-70
2024/01/26 05:54:49;;;;;;;44.60;21.85;;;;;;;;;;4929332;29;20051;-71
2024/01/26 05:57:16;;;;;;;24.40;13.57;;;;;;;;;;4929929;29;20031;-71
2024/01/26 05:59:42;;;;;;;55.70;26.63;;;;;;;;;;4922473;29;20063;-71
2024/01/26 06:02:08;;;;;;;44.03;22.65;;;;;;;;;;4921469;29;20051;-72
2024/01/26 06:04:34;;;;;;;54.70;26.75;;;;;;;;;;4931464;29;20043;-72
2024/01/26 06:07:00;;;;;;;41.58;19.73;;;;;;;;;;4928620;29;20031;-71
2024/01/26 06:09:26;;;;;;;31.13;18.27;;;;;;;;;;4924637;29;20122;-72
2024/01/26 06:11:51;;;;;;;50.42;26.38;;;;;;;;;;4930544;29;20075;-71
2024/01/26 06:14:17;;;;;;;35.83;20.08;;;;;;;;;;4930012;29;20035;-72
2024/01/26 06:16:43;;;;;;;32.20;18.05;;;;;;;;;;4927437;29;20043;-73
2024/01/26 06:19:09;;;;;;;51.17;26.38;;;;;;;;;;4932717;29;20116;-72
2024/01/26 06:21:34;;;;;;;39.20;19.20;;;;;;;;;;4930466;29;20114;-72
2024/01/26 06:24:00;;;;;;;41.92;19.35;;;;;;;;;;4912861;29;20524;-70
2024/01/26 06:26:26;;;;;;;41.83;22.10;;;;;;;;;;4936390;29;20036;-71
2024/01/26 06:28:52;;;;;;;38.33;20.08;;;;;;;;;;4931623;29;20425;-71
2024/01/26 06:31:19;;;;;;;25.35;14.63;;;;;;;;;;4926018;29;20171;-71
2024/01/26 06:33:46;;;;;;;34.47;17.80;;;;;;;;;;4922762;29;20070;-71
2024/01/26 06:36:12;;;;;;;22.90;15.63;;;;;;;;;;4930031;29;20070;-71
2024/01/26 06:38:40;;;;;;;28.55;17.02;;;;;;;;;;4923841;29;20083;-71
2024/01/26 06:41:08;;;;;;;20.25;12.48;;;;;;;;;;4930303;29;20605;-71
2024/01/26 06:43:34;;;;;;;32.90;17.58;;;;;;;;;;4927196;29;20462;-70
2024/01/26 06:46:00;;;;;;;36.38;18.25;;;;;;;;;;4922110;29;20032;-71
2024/01/26 06:48:26;;;;;;;30.42;15.43;;;;;;;;;;4926074;29;20064;-70
2024/01/26 06:50:52;;;;;;;38.97;17.60;;;;;;;;;;4927012;29;20087;-72
2024/01/26 06:53:18;;;;;;;9.68;8.52;;;;;;;;;;4923510;29;20036;-72
2024/01/26 06:55:45;;;;;;;32.22;15.52;;;;;;;;;;4925374;29;20067;-71
2024/01/26 06:58:10;;;;;;;23.83;13.55;;;;;;;;;;4927083;29;20526;-71
2024/01/26 07:00:36;;;;;;;16.73;10.55;;;;;;;;;;4924406;29;20032;-70
2024/01/26 07:03:02;;;;;;;29.80;16.25;;;;;;;;;;4925905;29;20095;-73
2024/01/26 07:05:28;;;;;;;25.17;16.50;;;;;;;;;;4932018;29;20107;-73
2024/01/26 07:07:54;;;;;;;27.33;14.32;;;;;;;;;;4899203;29;20698;-70
2024/01/26 07:10:20;;;;;;;28.05;15.50;;;;;;;;;;4930629;29;20165;-70
2024/01/26 07:12:46;;;;;;;33.72;17.42;;;;;;;;;;4932310;29;20073;-71
2024/01/26 07:15:12;;;;;;;43.53;17.92;;;;;;;;;;4931792;29;20044;-70
2024/01/26 07:17:38;;;;;;;27.63;16.30;;;;;;;;;;4932044;29;20046;-70
2024/01/26 07:20:04;;;;;;;32.63;16.48;;;;;;;;;;4930496;29;20111;-71
2024/01/26 07:22:30;;;;;;;37.75;19.27;;;;;;;;;;4931228;29;20059;-71
2024/01/26 07:24:56;;;;;;;34.35;17.00;;;;;;;;;;4930696;29;20040;-69
2024/01/26 07:27:22;;;;;;;27.13;15.98;;;;;;;;;;4929829;29;20071;-73
2024/01/26 07:29:48;;;;;;;34.22;18.67;;;;;;;;;;4926373;29;20031;-69
2024/01/26 07:32:14;;;;;;;36.72;20.05;;;;;;;;;;4923175;29;20501;-69
2024/01/26 07:34:40;;;;;;;30.92;16.10;;;;;;;;;;4922199;29;20032;-70
2024/01/26 07:37:07;;;;;;;25.55;15.68;;;;;;;;;;4919584;29;20419;-69
2024/01/26 07:39:33;;;;;;;34.80;18.55;;;;;;;;;;4923691;29;20134;-70
2024/01/26 07:41:59;;;;;;;31.10;16.00;;;;;;;;;;4918412;29;20127;-70
2024/01/26 07:44:25;;;;;;;23.20;14.35;;;;;;;;;;4921910;29;20045;-70
2024/01/26 07:46:51;;;;;;;31.38;17.75;;;;;;;;;;4929277;29;20043;-69
2024/01/26 07:49:17;;;;;;;24.50;13.93;;;;;;;;;;4918420;29;20066;-70
2024/01/26 07:51:43;;;;;;;32.47;18.55;;;;;;;;;;4915491;29;20506;-69
2024/01/26 07:54:09;;;;;;;44.85;21.95;;;;;;;;;;4916199;29;20174;-70
2024/01/26 07:56:35;;;;;;;43.30;22.08;;;;;;;;;;4937816;29;20035;-69
2024/01/26 07:59:01;;;;;;;41.45;20.65;;;;;;;;;;4923531;29;20598;-70
2024/01/26 08:01:26;;;;;;;44.55;20.73;;;;;;;;;;4923833;29;20036;-70
2024/01/26 08:03:52;;;;;;;44.15;21.80;;;;;;;;;;4920209;29;20033;-69
2024/01/26 08:06:18;;;;;;;28.70;15.02;;;;;;;;;;4915633;29;20064;-69
2024/01/26 08:08:43;;;;;;;40.55;20.23;;;;;;;;;;4918315;29;20529;-69
2024/01/26 08:11:09;;;;;;;33.28;16.55;;;;;;;;;;4921177;29;20048;-69
2024/01/26 08:13:35;;;;;;;37.08;19.02;;;;;;;;;;4923057;29;20032;-69
2024/01/26 08:16:01;;;;;;;47.70;25.63;;;;;;;;;;4920849;29;20051;-68
2024/01/26 08:18:27;;;;;;;32.25;18.60;;;;;;;;;;4937908;28;20135;-69
2024/01/26 08:20:52;;;;;;;44.80;21.00;;;;;;;;;;4928113;29;20855;-69
2024/01/26 08:23:18;;;;;;;38.33;18.88;;;;;;;;;;4921557;29;20035;-69
2024/01/26 08:25:44;;;;;;;33.65;18.23;;;;;;;;;;4922678;29;20076;-70
2024/01/26 08:28:11;;;;;;;40.58;20.25;;;;;;;;;;4916461;29;20035;-68
2024/01/26 08:30:37;;;;;;;39.85;20.48;;;;;;;;;;4919722;29;20032;-69
2024/01/26 08:33:03;;;;;;;48.33;23.52;;;;;;;;;;4923337;29;20047;-68
2024/01/26 08:35:29;;;;;;;44.08;21.92;;;;;;;;;;4928089;29;20039;-69
2024/01/26 08:37:55;;;;;;;45.70;24.05;;;;;;;;;;4921471;29;20039;-70
2024/01/26 08:40:21;;;;;;;45.08;21.58;;;;;;;;;;4924022;29;20046;-68
2024/01/26 08:42:47;;;;;;;52.75;20.35;;;;;;;;;;4914754;29;20483;-69
2024/01/26 08:45:13;;;;;;;49.47;23.77;;;;;;;;;;4922270;29;20055;-69
2024/01/26 08:47:39;;;;;;;44.78;21.63;;;;;;;;;;4920561;29;20042;-69
2024/01/26 08:50:05;;;;;;;39.67;20.27;;;;;;;;;;4900125;29;20410;-68
2024/01/26 08:52:31;;;;;;;44.10;20.85;;;;;;;;;;4924141;29;20076;-69
2024/01/26 08:54:58;;;;;;;38.92;16.65;;;;;;;;;;4921318;29;20040;-69
2024/01/26 08:57:23;;;;;;;46.80;23.58;;;;;;;;;;4922130;29;20038;-67
2024/01/26 08:59:49;;;;;;;42.72;21.58;;;;;;;;;;4926386;29;20051;-70
2024/01/26 09:02:15;;;;;;;54.97;26.33;;;;;;;;;;4926074;29;20178;-69
2024/01/26 09:04:41;;;;;;;47.00;24.80;;;;;;;;;;4925760;29;20493;-69
2024/01/26 09:07:07;;;;;;;52.67;25.88;;;;;;;;;;4935351;28;20577;-69
2024/01/26 09:09:33;;;;;;;53.20;26.77;;;;;;;;;;4919872;29;20144;-69
2024/01/26 09:11:59;;;;;;;48.70;22.27;;;;;;;;;;4928078;29;20510;-68
2024/01/26 09:14:28;;;;;;;56.50;25.65;;;;;;;;;;4929188;29;20049;-69
2024/01/26 09:16:53;;;;;;;50.30;23.27;;;;;;;;;;4919704;29;20499;-69
2024/01/26 09:19:19;;;;;;;43.42;21.42;;;;;;;;;;4922738;29;20051;-69
2024/01/26 09:21:46;;;;;;;44.05;20.08;;;;;;;;;;4919284;29;20063;-68
2024/01/26 09:24:12;;;;;;;52.15;21.85;;;;;;;;;;4926085;29;20035;-70
2024/01/26 09:26:39;;;;;;;44.60;22.45;;;;;;;;;;4923259;29;20043;-69
2024/01/26 09:29:06;;;;;;;57.60;27.63;;;;;;;;;;4930271;29;20043;-69
2024/01/26 09:31:32;;;;;;;44.97;22.13;;;;;;;;;;4911876;29;20024;-69
2024/01/26 09:33:58;;;;;;;39.70;21.30;;;;;;;;;;4926373;29;20035;-69
2024/01/26 09:36:24;;;;;;;36.53;21.55;;;;;;;;;;4929567;29;20481;-68
2024/01/26 09:38:50;;;;;;;42.33;22.05;;;;;;;;;;4926597;29;20075;-69
2024/01/26 09:41:17;;;;;;;41.33;21.75;;;;;;;;;;4929263;29;20079;-70
2024/01/26 09:43:43;;;;;;;39.47;20.95;;;;;;;;;;4921816;29;20098;-69
2024/01/26 09:46:08;;;;;;;38.90;19.15;;;;;;;;;;4931753;29;20367;-69
2024/01/26 09:48:34;;;;;;;45.78;24.98;;;;;;;;;;4921194;29;20074;-69
2024/01/26 09:51:00;;;;;;;38.85;19.20;;;;;;;;;;4921644;29;20118;-70
2024/01/26 09:53:26;;;;;;;44.75;21.10;;;;;;;;;;4914203;29;20036;-69
2024/01/26 09:55:52;;;;;;;46.25;22.58;;;;;;;;;;4924090;29;20046;-69
2024/01/26 09:58:18;;;;;;;48.33;22.67;;;;;;;;;;4935304;29;20043;-69
2024/01/26 10:00:45;;;;;;;47.65;24.02;;;;;;;;;;4927058;29;20467;-69
2024/01/26 10:03:14;;;;;;;39.72;20.70;;;;;;;;;;4930113;29;20094;-69
2024/01/26 10:05:40;;;;;;;16.33;10.10;;;;;;;;;;4909571;29;20122;-70
2024/01/26 10:08:09;;;;;;;49.17;24.42;;;;;;;;;;4916586;29;20127;-70
2024/01/26 10:10:35;;;;;;;41.35;23.65;;;;;;;;;;4920017;29;20032;-70
2024/01/26 10:13:01;;;;;;;44.47;22.08;;;;;;;;;;4922327;29;20107;-70
2024/01/26 10:15:26;;;;;;;43.22;20.98;;;;;;;;;;4930367;29;20024;-70
2024/01/26 10:17:53;;;;;;;52.60;30.27;;;;;;;;;;4916604;29;20063;-70
2024/01/26 10:20:20;;;;;;;46.53;23.20;;;;;;;;;;4929633;29;20490;-70
2024/01/26 10:22:46;;;;;;;54.00;28.00;;;;;;;;;;4919277;29;20047;-70
2024/01/26 10:25:13;;;;;;;46.95;23.67;;;;;;;;;;4920723;29;20028;-69
2024/01/26 10:27:39;;;;;;;49.78;25.42;;;;;;;;;;4924689;29;20042;-69
2024/01/26 10:30:05;;;;;;;48.47;22.42;;;;;;;;;;4925558;29;20032;-70
2024/01/26 10:32:32;;;;;;;40.38;21.83;;;;;;;;;;4917933;29;20071;-69
2024/01/26 10:34:58;;;;;;;43.92;22.95;;;;;;;;;;4924064;29;20043;-70
2024/01/26 10:38:04;;;;;;;47.83;22.52;;;;;;;;;;4920599;29;20080;-69
2024/01/26 10:40:30;;;;;;;45.65;21.65;;;;;;;;;;4921569;29;20107;-69
2024/01/26 10:42:56;;;;;;;39.38;20.90;;;;;;;;;;4919922;29;20055;-70
2024/01/26 10:45:22;;;;;;;43.80;21.60;;;;;;;;;;4921169;29;20561;-69
2024/01/26 10:47:48;;;;;;;19.05;10.32;;;;;;;;;;4917586;29;20042;-69
2024/01/26 10:50:14;;;;;;;35.30;19.05;;;;;;;;;;4927029;29;20067;-69
2024/01/26 10:52:40;;;;;;;37.20;19.80;;;;;;;;;;4905482;29;20042;-69
2024/01/26 10:55:06;;;;;;;9.10;8.13;;;;;;;;;;4928258;29;20039;-70
2024/01/26 10:57:32;;;;;;;40.80;20.05;;;;;;;;;;4931890;29;20043;-69
2024/01/26 10:59:58;;;;;;;37.47;21.15;;;;;;;;;;4922933;29;20051;-69
2024/01/26 11:02:27;;;;;;;26.48;14.70;;;;;;;;;;4925643;29;20511;-69
2024/01/26 11:04:52;;;;;;;34.03;18.48;;;;;;;;;;4920706;29;20039;-69
2024/01/26 11:07:18;;;;;;;42.33;22.52;;;;;;;;;;4922028;28;20031;-69
2024/01/26 11:09:46;;;;;;;40.50;20.50;;;;;;;;;;4906768;29;20047;-69
2024/01/26 11:12:29;;;;;;;41.38;18.75;;;;;;;;;;4921831;29;20052;-68
2024/01/26 11:15:13;;;;;;;19.77;11.93;;;;;;;;;;4904450;29;20031;-70
2024/01/26 11:17:43;;;;;;;35.03;17.73;;;;;;;;;;4905245;29;20127;-69
2024/01/26 11:20:18;;;;;;;31.23;15.57;;;;;;;;;;4918169;29;20415;-69
2024/01/26 11:22:44;;;;;;;18.65;11.43;;;;;;;;;;4919251;29;20040;-69
2024/01/26 11:25:20;;;;;;;26.20;16.65;;;;;;;;;;4907672;29;20044;-69
2024/01/26 11:27:47;;;;;;;32.33;16.67;;;;;;;;;;4926376;29;20036;-69
2024/01/26 11:30:22;;;;;;;23.85;14.52;;;;;;;;;;4920351;29;20554;-69
2024/01/26 11:32:48;;;;;;;25.83;13.95;;;;;;;;;;4920995;29;20036;-68
2024/01/26 11:35:15;;;;;;;30.00;17.40;;;;;;;;;;4904445;29;20035;-69
2024/01/26 11:37:42;;;;;;;33.05;17.67;;;;;;;;;;4898373;29;20032;-68
2024/01/26 11:40:09;;;;;;;19.92;11.45;;;;;;;;;;4925032;29;20514;-69
2024/01/26 11:42:36;;;;;;;29.52;18.40;;;;;;;;;;4914247;29;20028;-69
2024/01/26 11:45:11;;;;;;;34.03;18.33;;;;;;;;;;4922333;29;20043;-69
2024/01/26 11:47:38;;;;;;;34.30;18.35;;;;;;;;;;4923606;29;20525;-70
2024/01/26 11:50:05;;;;;;;38.90;21.55;;;;;;;;;;4919041;29;20036;-69
2024/01/26 11:52:32;;;;;;;37.58;20.98;;;;;;;;;;4919893;29;20035;-69
2024/01/26 11:54:58;;;;;;;34.50;20.08;;;;;;;;;;4920805;29;20040;-69
2024/01/26 11:57:24;;;;;;;34.58;19.95;;;;;;;;;;4913354;29;20038;-69
2024/01/26 11:59:50;;;;;;;41.60;20.73;;;;;;;;;;4916761;29;20078;-69
2024/01/26 12:02:16;;;;;;;30.77;17.05;;;;;;;;;;4923677;29;20020;-69
2024/01/26 12:04:41;;;;;;;37.88;19.63;;;;;;;;;;4903714;29;20054;-69
2024/01/26 12:07:07;;;;;;;42.40;21.00;;;;;;;;;;4917161;29;20103;-69
2024/01/26 12:09:34;;;;;;;14.07;9.80;;;;;;;;;;4919400;29;20059;-69
2024/01/26 12:12:00;;;;;;;42.80;21.45;;;;;;;;;;4915832;29;20035;-69
2024/01/26 12:14:27;;;;;;;40.25;19.23;;;;;;;;;;4914876;29;20063;-69
2024/01/26 12:16:54;;;;;;;41.03;20.00;;;;;;;;;;4938090;28;20028;-68
2024/01/26 12:19:19;;;;;;;36.35;20.13;;;;;;;;;;4918234;29;20040;-69
2024/01/26 12:21:46;;;;;;;43.58;21.33;;;;;;;;;;4927417;29;20417;-70
2024/01/26 12:24:13;;;;;;;46.72;21.60;;;;;;;;;;4920550;29;20155;-69
2024/01/26 12:26:38;;;;;;;44.22;21.92;;;;;;;;;;4927272;29;20070;-69
2024/01/26 12:29:07;;;;;;;47.72;23.92;;;;;;;;;;4918228;29;20422;-69
2024/01/26 12:31:34;;;;;;;47.13;21.42;;;;;;;;;;4928830;29;20027;-70
2024/01/26 12:34:01;;;;;;;44.17;22.27;;;;;;;;;;4908158;29;20502;-69
2024/01/26 12:36:31;;;;;;;45.15;22.60;;;;;;;;;;4925768;29;20498;-69
2024/01/26 12:38:58;;;;;;;33.00;18.90;;;;;;;;;;4918180;29;20058;-70
2024/01/26 12:41:25;;;;;;;44.17;21.88;;;;;;;;;;4924960;29;20046;-70
2024/01/26 12:43:52;;;;;;;45.20;22.20;;;;;;;;;;4916968;29;20107;-71
2024/01/26 12:46:19;;;;;;;42.55;21.52;;;;;;;;;;4927710;29;20610;-70
2024/01/26 12:48:45;;;;;;;44.75;21.05;;;;;;;;;;4918246;29;20036;-69
2024/01/26 12:51:11;;;;;;;46.83;22.83;;;;;;;;;;4923643;29;20262;-68
2024/01/26 12:53:37;;;;;;;45.30;22.23;;;;;;;;;;4918215;29;20499;-69
2024/01/26 12:56:03;;;;;;;55.40;23.95;;;;;;;;;;4922466;29;20035;-69
2024/01/26 12:58:28;;;;;;;50.45;22.73;;;;;;;;;;4921667;29;20040;-69
2024/01/26 13:00:54;;;;;;;45.40;23.15;;;;;;;;;;4918958;29;20036;-70
2024/01/26 13:03:20;;;;;;;46.25;23.40;;;;;;;;;;4918903;29;20058;-70
2024/01/26 13:05:46;;;;;;;42.60;21.25;;;;;;;;;;4904390;29;20507;-69
2024/01/26 13:08:12;;;;;;;47.13;22.15;;;;;;;;;;4919384;29;20498;-69
2024/01/26 13:10:39;;;;;;;50.45;23.52;;;;;;;;;;4918587;29;20035;-70
2024/01/26 13:13:04;;;;;;;47.78;22.10;;;;;;;;;;4921612;29;20046;-69
2024/01/26 13:15:30;;;;;;;51.28;23.05;;;;;;;;;;4921998;29;20032;-69
2024/01/26 13:17:56;;;;;;;48.83;21.90;;;;;;;;;;4914804;29;20051;-69
2024/01/26 13:20:22;;;;;;;48.30;22.90;;;;;;;;;;4922336;29;20039;-68
2024/01/26 13:22:48;;;;;;;50.05;23.00;;;;;;;;;;4906903;29;20035;-69
2024/01/26 13:25:15;;;;;;;46.90;22.42;;;;;;;;;;4920283;29;20039;-71
2024/01/26 13:27:41;;;;;;;47.90;23.35;;;;;;;;;;4910012;29;20131;-69
2024/01/26 13:30:07;;;;;;;46.78;23.25;;;;;;;;;;4921589;29;20502;-70
2024/01/26 13:32:34;;;;;;;48.13;25.55;;;;;;;;;;4930818;29;20120;-70
2024/01/26 13:34:59;;;;;;;55.70;24.02;;;;;;;;;;4916214;29;20090;-70
2024/01/26 13:37:25;;;;;;;54.03;27.35;;;;;;;;;;4920401;29;20570;-70
2024/01/26 13:39:51;;;;;;;52.67;24.42;;;;;;;;;;4919170;29;20051;-69
2024/01/26 13:42:17;;;;;;;59.60;29.75;;;;;;;;;;4906618;29;20039;-69
2024/01/26 13:44:44;;;;;;;60.80;26.42;;;;;;;;;;4919467;29;20652;-69
2024/01/26 13:47:10;;;;;;;55.15;28.10;;;;;;;;;;4915282;29;20511;-71
2024/01/26 13:49:36;;;;;;;64.70;29.33;;;;;;;;;;4924901;29;20032;-70
2024/01/26 13:52:02;;;;;;;63.13;32.90;;;;;;;;;;4917992;29;20059;-70
2024/01/26 13:54:28;;;;;;;62.03;27.20;;;;;;;;;;4918804;29;20115;-70
2024/01/26 13:56:56;;;;;;;56.05;27.08;;;;;;;;;;4927489;29;20119;-70
2024/01/26 13:59:22;;;;;;;56.53;28.45;;;;;;;;;;4926785;29;20406;-69
2024/01/26 14:01:51;;;;;;;58.17;27.27;;;;;;;;;;4928428;29;20039;-70
2024/01/26 14:04:19;;;;;;;56.45;27.67;;;;;;;;;;4922102;29;20459;-70
2024/01/26 14:06:45;;;;;;;53.92;25.65;;;;;;;;;;4926517;29;20418;-70
2024/01/26 14:09:12;;;;;;;61.75;29.23;;;;;;;;;;4932319;28;20118;-70
2024/01/26 14:11:38;;;;;;;54.83;26.95;;;;;;;;;;4937864;28;20071;-71
2024/01/26 14:14:06;;;;;;;63.78;29.88;;;;;;;;;;4919405;29;20483;-70